createdAt,value
2018-05-13T00:00:20.676Z,18.93
2018-05-13T00:05:24.275Z,17.77
2018-05-13T00:10:27.770Z,17.87
2018-05-13T00:15:31.305Z,18.03
2018-05-13T00:20:34.819Z,19.40
2018-05-13T00:25:38.358Z,18.93
2018-05-13T00:30:41.881Z,18.43
2018-05-13T00:35:45.477Z,18.63
2018-05-13T00:40:49.085Z,19.30
2018-05-13T00:45:52.674Z,19.77
2018-05-13T00:50:56.147Z,21.77
2018-05-13T00:55:59.666Z,20.03
2018-05-13T01:01:02.871Z,18.57
2018-05-13T01:06:06.383Z,20.73
2018-05-13T01:11:09.915Z,21.47
2018-05-13T01:16:13.977Z,20.90
2018-05-13T01:21:17.206Z,21.87
2018-05-13T01:26:20.809Z,23.57
2018-05-13T01:31:24.379Z,22.30
2018-05-13T01:36:27.546Z,22.97
2018-05-13T01:41:30.677Z,24.10
2018-05-13T01:46:34.187Z,27.27
2018-05-13T01:51:37.671Z,26.77
2018-05-13T01:56:41.190Z,25.50
2018-05-13T02:01:44.418Z,25.87
2018-05-13T02:06:48.012Z,28.90
2018-05-13T02:11:51.553Z,29.90
2018-05-13T02:16:55.090Z,30.73
2018-05-13T02:21:59.288Z,28.60
2018-05-13T02:27:02.826Z,28.90
2018-05-13T02:32:06.361Z,34.73
2018-05-13T02:37:09.860Z,32.97
2018-05-13T02:42:13.426Z,32.40
2018-05-13T02:47:17.012Z,32.63
2018-05-13T02:52:20.645Z,33.67
2018-05-13T02:57:24.181Z,33.37
2018-05-13T03:02:27.688Z,34.27
2018-05-13T03:07:31.208Z,36.07
2018-05-13T03:12:34.709Z,36.10
2018-05-13T03:17:38.209Z,38.30
2018-05-13T03:22:41.721Z,40.20
2018-05-13T03:27:45.258Z,38.53
2018-05-13T03:32:48.473Z,43.40
2018-05-13T03:37:52.038Z,41.70
2018-05-13T03:42:55.600Z,43.60
2018-05-13T03:47:59.099Z,43.47
2018-05-13T03:53:02.683Z,40.33
2018-05-13T03:58:06.203Z,41.80
2018-05-13T04:03:09.749Z,40.43
2018-05-13T04:14:06.715Z,36.87
2018-05-13T04:19:09.207Z,37.63
2018-05-13T04:24:11.700Z,35.97
2018-05-13T04:29:14.500Z,34.57
2018-05-13T04:34:17.382Z,25.20
2018-05-13T04:39:19.918Z,24.47
2018-05-13T04:44:22.457Z,22.03
2018-05-13T04:49:25.024Z,22.53
2018-05-13T04:54:27.506Z,21.03
2018-05-13T04:59:30.007Z,21.83
2018-05-13T05:04:33.285Z,22.10
2018-05-13T05:09:35.828Z,21.07
2018-05-13T05:14:38.327Z,20.47
2018-05-13T05:19:40.842Z,20.73
2018-05-13T05:24:43.376Z,21.20
2018-05-13T05:29:45.887Z,19.83
2018-05-13T05:34:48.423Z,20.63
2018-05-13T05:39:50.973Z,19.97
2018-05-13T05:44:53.495Z,18.90
2018-05-13T05:49:55.969Z,19.83
2018-05-13T05:54:58.459Z,18.00
2018-05-13T06:00:01.014Z,19.45
2018-05-13T06:05:03.509Z,18.43
2018-05-13T06:10:06.031Z,20.00
2018-05-13T06:15:08.582Z,17.62
2018-05-13T06:20:11.193Z,17.77
2018-05-13T06:25:13.819Z,16.77
2018-05-13T06:30:16.389Z,16.90
2018-05-13T06:35:18.938Z,17.85
2018-05-13T06:40:21.454Z,18.70
2018-05-13T06:45:23.997Z,17.52
2018-05-13T06:50:26.501Z,18.15
2018-05-13T06:55:29.013Z,17.52
2018-05-13T07:00:31.553Z,16.50
2018-05-13T07:05:34.104Z,16.35
2018-05-13T07:10:37.345Z,17.57
2018-05-13T07:15:39.859Z,16.70
2018-05-13T07:20:42.431Z,15.60
2018-05-13T07:25:45.065Z,14.27
2018-05-13T07:30:47.710Z,17.30
2018-05-13T07:35:50.270Z,14.32
2018-05-13T07:40:52.801Z,12.30
2018-05-13T07:45:56.060Z,13.57
2018-05-13T07:50:58.574Z,13.38
2018-05-13T07:56:01.129Z,14.73
2018-05-13T08:01:03.650Z,12.00
2018-05-13T08:06:06.239Z,12.07
2018-05-13T08:11:08.685Z,12.10
2018-05-13T08:16:11.366Z,13.18
2018-05-13T08:21:13.907Z,12.95
2018-05-13T08:26:16.482Z,10.60
2018-05-13T08:31:19.002Z,10.77
2018-05-13T08:36:21.992Z,11.40
2018-05-13T08:41:24.697Z,11.90
2018-05-13T08:46:27.320Z,10.52
2018-05-13T08:51:29.795Z,9.05
2018-05-13T08:56:32.313Z,10.57
2018-05-13T09:01:34.829Z,9.27
2018-05-13T09:06:37.423Z,10.20
2018-05-13T09:11:40.023Z,11.82
2018-05-13T09:16:42.586Z,8.90
2018-05-13T09:21:45.118Z,10.30
2018-05-13T09:26:47.711Z,7.80
2018-05-13T09:31:50.209Z,7.75
2018-05-13T09:36:52.708Z,9.80
2018-05-13T09:41:55.212Z,9.10
2018-05-13T09:46:57.709Z,9.63
2018-05-13T09:52:00.191Z,8.40
2018-05-13T09:57:02.694Z,7.85
2018-05-13T10:02:05.227Z,9.57
2018-05-13T10:07:07.776Z,7.37
2018-05-13T10:12:10.299Z,5.75
2018-05-13T10:17:12.814Z,7.25
2018-05-13T10:22:15.431Z,6.80
2018-05-13T10:27:18.109Z,8.07
2018-05-13T10:37:46.785Z,7.33
2018-05-13T10:48:33.784Z,8.10
2018-05-13T10:53:55.799Z,6.40
2018-05-13T10:58:59.920Z,5.90
2018-05-13T11:04:05.787Z,3.87
2018-05-13T11:09:08.272Z,6.83
2018-05-13T11:14:10.847Z,6.87
2018-05-13T11:19:13.395Z,5.97
2018-05-13T11:24:15.891Z,6.57
2018-05-13T11:29:18.408Z,8.73
2018-05-13T11:34:21.076Z,6.70
2018-05-13T11:39:23.707Z,5.00
2018-05-13T11:44:26.385Z,5.33
2018-05-13T11:49:29.033Z,7.03
2018-05-13T11:54:31.530Z,7.30
2018-05-13T11:59:34.036Z,4.47
2018-05-13T12:04:36.526Z,4.23
2018-05-13T12:09:39.079Z,4.50
2018-05-13T12:14:41.632Z,7.27
2018-05-13T12:19:44.732Z,5.30
2018-05-13T12:24:47.282Z,5.07
2018-05-13T12:29:49.778Z,5.07
2018-05-13T12:34:52.314Z,4.30
2018-05-13T12:39:55.318Z,7.43
2018-05-13T12:44:58.609Z,6.40
2018-05-13T12:50:01.155Z,3.80
2018-05-13T12:55:04.596Z,5.00
2018-05-13T13:00:07.115Z,5.73
2018-05-13T13:05:09.661Z,5.40
2018-05-13T13:10:12.159Z,7.43
2018-05-13T13:15:14.808Z,3.43
2018-05-13T13:20:17.301Z,4.47
2018-05-13T13:25:19.820Z,3.43
2018-05-13T13:30:22.546Z,6.17
2018-05-13T13:35:24.943Z,5.00
2018-05-13T13:40:27.672Z,5.73
2018-05-13T13:45:30.484Z,3.37
2018-05-13T13:50:32.955Z,6.27
2018-05-13T13:55:35.462Z,6.07
2018-05-13T14:00:38.660Z,4.62
2018-05-13T14:05:41.155Z,4.70
2018-05-13T14:10:43.723Z,6.47
2018-05-13T14:15:46.356Z,4.60
2018-05-13T14:20:48.884Z,6.63
2018-05-13T14:25:51.538Z,4.93
2018-05-13T14:30:54.028Z,3.37
2018-05-13T14:35:56.588Z,3.30
2018-05-13T14:40:59.113Z,4.00
2018-05-13T14:46:01.567Z,7.00
2018-05-13T14:51:04.111Z,4.63
2018-05-13T14:56:06.616Z,4.20
2018-05-13T15:01:09.097Z,6.67
2018-05-13T15:06:11.618Z,5.10
2018-05-13T15:11:14.222Z,5.83
2018-05-13T15:16:16.864Z,4.50
2018-05-13T15:21:19.382Z,3.77
2018-05-13T15:26:23.092Z,6.83
2018-05-13T15:31:25.645Z,4.20
2018-05-13T15:36:29.095Z,3.60
2018-05-13T15:41:31.621Z,6.07
2018-05-13T15:46:34.114Z,6.90
2018-05-13T15:51:36.620Z,4.50
2018-05-13T15:56:39.103Z,4.67
2018-05-13T16:01:41.572Z,5.27
2018-05-13T16:06:44.200Z,6.13
2018-05-13T16:11:46.751Z,6.47
2018-05-13T16:16:49.313Z,8.17
2018-05-13T16:21:51.858Z,4.80
2018-05-13T16:26:54.344Z,5.67
2018-05-13T16:31:56.887Z,4.70
2018-05-13T16:36:59.370Z,4.67
2018-05-13T16:42:01.861Z,6.50
2018-05-13T16:47:04.362Z,4.10
2018-05-13T16:52:06.861Z,6.43
2018-05-13T16:57:09.720Z,5.47
2018-05-13T17:02:12.287Z,5.37
2018-05-13T17:07:14.899Z,4.53
2018-05-13T17:12:17.452Z,3.43
2018-05-13T17:17:20.059Z,4.50
2018-05-13T17:22:22.513Z,5.37
2018-05-13T17:27:26.121Z,6.10
2018-05-13T17:32:28.679Z,7.73
2018-05-13T17:37:31.239Z,5.53
2018-05-13T17:42:33.688Z,3.97
2018-05-13T17:47:36.198Z,7.07
2018-05-13T17:52:38.717Z,5.50
2018-05-13T17:57:41.256Z,4.23
2018-05-13T18:02:43.739Z,4.97
2018-05-13T18:07:46.277Z,3.30
2018-05-13T18:12:48.856Z,5.37
2018-05-13T18:17:53.360Z,4.03
2018-05-13T18:22:56.466Z,3.80
2018-05-13T18:27:58.952Z,2.80
2018-05-13T18:33:01.731Z,3.97
2018-05-13T18:38:16.492Z,5.00
2018-05-13T18:43:21.838Z,3.93
2018-05-13T18:48:25.005Z,3.33
2018-05-13T18:53:27.574Z,7.47
2018-05-13T18:58:30.321Z,4.20
2018-05-13T19:03:32.842Z,3.97
2018-05-13T19:08:35.526Z,4.50
2018-05-13T19:13:38.657Z,7.87
2018-05-13T19:18:41.182Z,5.50
2018-05-13T19:23:45.936Z,4.17
2018-05-13T19:28:48.515Z,3.67
2018-05-13T19:33:51.814Z,5.43
2018-05-13T19:38:54.988Z,3.50
2018-05-13T19:44:13.922Z,7.33
2018-05-13T19:49:24.500Z,7.10
2018-05-13T19:54:35.530Z,8.50
2018-05-13T19:59:42.973Z,5.40
2018-05-13T20:04:58.252Z,4.47
2018-05-13T20:10:05.303Z,3.90
2018-05-13T20:15:11.162Z,5.10
2018-05-13T20:20:18.404Z,4.57
2018-05-13T20:25:20.964Z,4.83
2018-05-13T20:30:24.361Z,4.00
2018-05-13T20:35:26.818Z,4.00
2018-05-13T20:40:31.392Z,5.43
2018-05-13T20:45:33.988Z,7.40
2018-05-13T20:50:38.001Z,3.70
2018-05-13T20:55:40.817Z,4.13
2018-05-13T21:00:43.307Z,5.80
2018-05-13T21:05:45.861Z,5.47
2018-05-13T21:10:49.353Z,7.93
2018-05-13T21:15:53.091Z,5.93
2018-05-13T21:20:55.594Z,4.37
2018-05-13T21:25:58.083Z,4.47
2018-05-13T21:31:03.480Z,6.63
2018-05-13T21:36:09.129Z,6.70
2018-05-13T21:41:15.578Z,7.30
2018-05-13T21:46:20.725Z,7.27
2018-05-13T21:51:27.485Z,5.30
2018-05-13T21:56:33.445Z,5.27
2018-05-13T22:01:35.927Z,5.27
2018-05-13T22:06:38.401Z,5.20
2018-05-13T22:11:40.954Z,7.83
2018-05-13T22:16:45.742Z,6.03
2018-05-13T22:21:48.421Z,10.03
2018-05-13T22:26:50.966Z,7.53
2018-05-13T22:31:53.504Z,4.90
2018-05-13T22:36:56.023Z,4.40
2018-05-13T22:41:58.533Z,5.33
2018-05-13T22:47:04.545Z,7.40
2018-05-13T22:52:07.042Z,6.97
2018-05-13T22:57:09.891Z,7.77
2018-05-13T23:02:14.572Z,4.93
2018-05-13T23:07:17.795Z,6.67
2018-05-13T23:12:20.296Z,5.87
2018-05-13T23:17:22.887Z,6.57
2018-05-13T23:22:34.339Z,7.43
2018-05-13T23:27:36.846Z,4.07
2018-05-13T23:32:39.406Z,5.13
2018-05-13T23:37:41.873Z,5.83
2018-05-13T23:42:44.427Z,6.60
2018-05-13T23:47:46.962Z,6.37
2018-05-13T23:52:49.472Z,7.00
2018-05-13T23:57:51.998Z,4.43
